One Hundred Palms, California
Current Conditions -  °F | °C
As of 1:56 PM on Wednesday 22 Oct 2014 (Local Time) from KNJK Reporting Station
Few Clouds Few Clouds  
Wind Chill: 92°   Ceiling: Unl
Heat Index: 92°   Visibility: 10mi
Dew Point: 47°   Wind: 0mph
Humidity: 21%   Direction: NA
Pressure: 29.85"   Gusts: NA
Location:  33.093°N, 116.06°W
Report Text: KNJK 222056Z 00000KT 10SM FEW200 33/08 A2985 RMK AO2 SLP122 T03330083 58019
Loading
Personal Weather Stations






























Interactive Weather Map
Tropical Storm Tracking
New forecast layout! Learn more

10-Day Weather Forecast

Advertisements
Track Severe Weather on mobile